createdAt,value
2018-12-19T00:01:31.309Z,29.93
2018-12-19T00:03:32.319Z,28.47
2018-12-19T00:05:33.351Z,30.73
2018-12-19T00:07:34.360Z,31.73
2018-12-19T00:09:35.270Z,32.23
2018-12-19T00:11:36.443Z,31.10
2018-12-19T00:13:37.580Z,31.87
2018-12-19T00:15:38.483Z,34.73
2018-12-19T00:17:39.567Z,32.93
2018-12-19T00:19:40.598Z,32.80
2018-12-19T00:21:41.615Z,35.63
2018-12-19T00:23:42.643Z,33.97
2018-12-19T00:25:43.735Z,33.17
2018-12-19T00:27:44.879Z,34.27
2018-12-19T00:29:45.991Z,31.13
2018-12-19T00:31:46.899Z,33.83
2018-12-19T00:33:47.926Z,33.77
2018-12-19T00:35:48.941Z,33.07
2018-12-19T00:37:49.962Z,35.80
2018-12-19T00:39:50.987Z,31.53
2018-12-19T00:41:52.091Z,36.73
2018-12-19T00:43:53.111Z,34.83
2018-12-19T00:45:54.135Z,35.00
2018-12-19T00:47:55.160Z,35.63
2018-12-19T00:49:56.192Z,34.57
2018-12-19T00:51:57.327Z,37.47
2018-12-19T00:53:58.343Z,36.63
2018-12-19T00:55:59.372Z,36.80
2018-12-19T00:58:00.390Z,34.00
2018-12-19T01:00:01.408Z,35.40
2018-12-19T01:02:02.551Z,34.17
2018-12-19T01:04:03.700Z,37.90
2018-12-19T01:06:04.715Z,37.07
2018-12-19T01:08:05.739Z,36.73
2018-12-19T01:10:06.771Z,34.10
2018-12-19T01:12:07.784Z,36.33
2018-12-19T01:14:08.823Z,33.67
2018-12-19T01:16:09.835Z,37.30
2018-12-19T01:18:10.863Z,37.97
2018-12-19T01:20:12.002Z,34.37
2018-12-19T01:22:13.032Z,34.20
2018-12-19T01:24:14.055Z,35.13
2018-12-19T01:26:15.074Z,35.40
2018-12-19T01:28:16.196Z,34.37
2018-12-19T01:30:17.227Z,34.67
2018-12-19T01:32:18.257Z,37.37
2018-12-19T01:34:19.285Z,37.93
2018-12-19T01:36:20.442Z,35.00
2018-12-19T01:38:21.595Z,37.20
2018-12-19T01:40:22.610Z,38.00
2018-12-19T01:42:23.623Z,39.53
2018-12-19T01:44:24.684Z,39.83
2018-12-19T01:46:25.699Z,39.60
2018-12-19T01:48:26.615Z,36.87
2018-12-19T01:50:27.675Z,36.80
2018-12-19T01:52:28.699Z,36.13
2018-12-19T01:54:29.736Z,36.90
2018-12-19T01:56:30.752Z,36.60
2018-12-19T01:58:31.758Z,41.37
2018-12-19T02:00:33.499Z,36.47
2018-12-19T02:02:34.535Z,35.70
2018-12-19T02:04:35.555Z,37.20
2018-12-19T02:06:36.599Z,39.03
2018-12-19T02:08:37.611Z,35.97
2018-12-19T02:10:38.654Z,36.37
2018-12-19T02:12:39.671Z,39.73
2018-12-19T02:14:40.579Z,37.20
2018-12-19T02:16:41.623Z,42.90
2018-12-19T02:18:42.634Z,41.70
2018-12-19T02:20:43.546Z,40.23
2018-12-19T02:22:44.694Z,37.00
2018-12-19T02:24:45.756Z,37.13
2018-12-19T02:26:46.788Z,39.57
2018-12-19T02:28:47.802Z,36.90
2018-12-19T02:30:48.831Z,33.77
2018-12-19T02:32:49.882Z,37.67
2018-12-19T02:34:50.994Z,37.53
2018-12-19T02:36:51.994Z,37.73
2018-12-19T02:38:53.014Z,34.77
2018-12-19T02:40:54.047Z,38.10
2018-12-19T02:42:55.008Z,40.13
2018-12-19T02:44:56.028Z,35.63
2018-12-19T02:46:57.060Z,34.67
2018-12-19T02:48:58.184Z,34.83
2018-12-19T02:50:59.099Z,35.77
2018-12-19T02:53:00.149Z,36.40
2018-12-19T02:55:01.292Z,33.37
2018-12-19T02:57:02.352Z,32.90
2018-12-19T02:59:03.375Z,37.67
2018-12-19T03:01:04.403Z,35.13
2018-12-19T03:03:05.415Z,37.27
2018-12-19T03:05:06.507Z,36.63
2018-12-19T03:07:07.527Z,38.50
2018-12-19T03:09:08.556Z,36.20
2018-12-19T03:11:10.708Z,37.67
2018-12-19T03:13:11.818Z,36.93
2018-12-19T03:15:12.857Z,36.60
2018-12-19T03:17:13.996Z,34.23
2018-12-19T03:19:15.011Z,35.87
2018-12-19T03:21:16.047Z,36.80
2018-12-19T03:23:17.061Z,37.67
2018-12-19T03:25:18.075Z,37.57
2018-12-19T03:27:19.098Z,39.10
2018-12-19T03:29:20.103Z,37.23
2018-12-19T03:31:21.040Z,34.00
2018-12-19T03:33:22.051Z,37.53
2018-12-19T03:35:23.070Z,37.13
2018-12-19T03:37:24.091Z,37.03
2018-12-19T03:39:25.152Z,34.77
2018-12-19T03:41:26.243Z,35.23
2018-12-19T03:43:27.278Z,38.90
2018-12-19T03:45:28.391Z,35.67
2018-12-19T03:47:29.404Z,37.97
2018-12-19T03:49:30.607Z,37.03
2018-12-19T03:51:31.664Z,39.97
2018-12-19T03:53:32.682Z,38.63
2018-12-19T03:55:33.682Z,38.30
2018-12-19T03:57:34.915Z,38.47
2018-12-19T03:59:36.017Z,36.07
2018-12-19T04:01:37.039Z,35.80
2018-12-19T04:03:38.058Z,37.30
2018-12-19T04:05:39.082Z,41.77
2018-12-19T04:07:40.211Z,39.63
2018-12-19T04:09:41.222Z,34.80
2018-12-19T04:11:42.240Z,34.33
2018-12-19T04:13:43.264Z,35.37
2018-12-19T04:15:44.376Z,36.20
2018-12-19T04:17:45.399Z,34.30
2018-12-19T04:19:46.424Z,35.50
2018-12-19T04:21:47.454Z,35.20
2018-12-19T04:23:48.573Z,34.90
2018-12-19T04:25:49.701Z,34.63
2018-12-19T04:27:50.817Z,34.10
2018-12-19T04:29:51.967Z,32.33
2018-12-19T04:31:52.984Z,33.97
2018-12-19T04:33:54.116Z,33.20
2018-12-19T04:35:55.243Z,34.37
2018-12-19T04:37:56.319Z,37.83
2018-12-19T04:39:57.338Z,35.40
2018-12-19T04:41:59.759Z,35.40
2018-12-19T04:44:00.767Z,34.83
2018-12-19T04:46:01.772Z,35.80
2018-12-19T04:48:02.801Z,33.93
2018-12-19T04:50:04.013Z,35.97
2018-12-19T04:52:05.017Z,33.93
2018-12-19T04:54:06.046Z,33.77
2018-12-19T04:56:07.057Z,32.33
2018-12-19T04:58:08.203Z,33.47
2018-12-19T05:00:09.363Z,36.03
2018-12-19T05:02:10.375Z,34.17
2018-12-19T05:04:11.423Z,35.17
2018-12-19T05:06:12.448Z,36.23
2018-12-19T05:08:13.342Z,35.77
2018-12-19T05:10:14.527Z,36.77
2018-12-19T05:12:15.642Z,38.80
2018-12-19T05:14:17.089Z,34.93
2018-12-19T05:16:18.103Z,37.73
2018-12-19T05:18:19.113Z,37.83
2018-12-19T05:20:20.143Z,34.33
2018-12-19T05:22:21.151Z,39.67
2018-12-19T05:24:22.181Z,36.40
2018-12-19T05:26:23.207Z,37.17
2018-12-19T05:28:24.227Z,36.33
2018-12-19T05:30:25.232Z,39.23
2018-12-19T05:32:26.255Z,36.03
2018-12-19T05:34:27.162Z,36.37
2018-12-19T05:36:28.183Z,39.67
2018-12-19T05:38:29.203Z,37.67
2018-12-19T05:40:30.210Z,36.87
2018-12-19T05:42:31.243Z,36.27
2018-12-19T05:44:32.246Z,34.90
2018-12-19T05:46:33.255Z,35.77
2018-12-19T05:48:34.274Z,33.97
2018-12-19T05:50:35.287Z,36.63
2018-12-19T05:52:36.531Z,35.97
2018-12-19T05:54:37.543Z,35.70
2018-12-19T05:56:38.604Z,34.97
2018-12-19T05:58:39.645Z,34.83
2018-12-19T06:00:40.658Z,33.53
2018-12-19T06:02:41.771Z,36.23
2018-12-19T06:04:42.782Z,34.23
2018-12-19T06:06:43.865Z,35.53
2018-12-19T06:08:44.878Z,35.43
2018-12-19T06:10:45.898Z,37.67
2018-12-19T06:12:46.903Z,35.63
2018-12-19T06:14:47.911Z,36.53
2018-12-19T06:16:48.932Z,33.10
2018-12-19T06:18:50.090Z,37.87
2018-12-19T06:20:51.122Z,38.27
2018-12-19T06:22:52.147Z,39.70
2018-12-19T06:24:53.154Z,38.13
2018-12-19T06:26:54.230Z,37.70
2018-12-19T06:28:55.238Z,36.30
2018-12-19T06:30:56.251Z,36.97
2018-12-19T06:32:57.275Z,35.07
2018-12-19T06:34:58.291Z,33.70
2018-12-19T06:36:59.330Z,36.87
2018-12-19T06:39:00.459Z,36.43
2018-12-19T06:41:01.475Z,35.90
2018-12-19T06:43:02.577Z,37.27
2018-12-19T06:45:03.615Z,33.97
2018-12-19T06:47:04.651Z,38.23
2018-12-19T06:49:05.659Z,34.13
2018-12-19T06:51:06.674Z,38.97
2018-12-19T06:53:07.738Z,38.03
2018-12-19T06:55:08.855Z,36.63
2018-12-19T06:57:09.875Z,35.87
2018-12-19T06:59:10.900Z,38.00
2018-12-19T07:01:11.941Z,36.80
2018-12-19T07:03:12.967Z,38.43
2018-12-19T07:05:14.020Z,38.83
2018-12-19T07:07:15.027Z,40.07
2018-12-19T07:09:16.307Z,38.60
2018-12-19T07:11:17.351Z,39.00
2018-12-19T07:13:18.398Z,36.87
2018-12-19T07:15:19.406Z,36.73
2018-12-19T07:17:20.423Z,40.30
2018-12-19T07:19:21.455Z,38.20
2018-12-19T07:21:22.478Z,35.97
2018-12-19T07:23:23.486Z,38.43
2018-12-19T07:27:32.323Z,38.53
2018-12-19T07:29:33.340Z,38.07
2018-12-19T07:31:34.447Z,38.60
2018-12-19T07:33:35.463Z,37.10
2018-12-19T07:35:36.486Z,35.33
2018-12-19T07:37:37.636Z,31.17
2018-12-19T07:39:38.654Z,40.77
2018-12-19T07:41:39.671Z,35.60
2018-12-19T07:43:40.687Z,35.13
2018-12-19T07:45:41.694Z,31.80
2018-12-19T07:47:42.834Z,33.47
2018-12-19T07:49:43.839Z,33.50
2018-12-19T07:51:44.871Z,34.33
2018-12-19T07:53:45.877Z,37.93
2018-12-19T07:55:47.002Z,34.43
2018-12-19T07:57:48.014Z,38.70
2018-12-19T07:59:49.028Z,36.17
2018-12-19T08:01:50.031Z,37.57
2018-12-19T08:03:51.166Z,36.80
2018-12-19T08:05:59.098Z,35.53
2018-12-19T08:08:00.110Z,34.93
2018-12-19T08:10:01.124Z,38.13
2018-12-19T08:12:02.131Z,35.97
2018-12-19T08:14:03.151Z,38.67
2018-12-19T08:16:04.223Z,39.73
2018-12-19T08:18:05.752Z,36.07
2018-12-19T08:20:06.852Z,40.50
2018-12-19T08:22:07.878Z,36.17
2018-12-19T08:24:08.902Z,37.63
2018-12-19T08:26:10.120Z,40.57
2018-12-19T08:28:11.167Z,38.87
2018-12-19T08:30:12.171Z,37.80
2018-12-19T08:32:13.198Z,37.97
2018-12-19T08:34:14.463Z,35.13
2018-12-19T08:36:15.470Z,35.20
2018-12-19T08:38:16.507Z,39.03
2018-12-19T08:40:17.511Z,40.93
2018-12-19T08:42:18.519Z,38.50
2018-12-19T08:44:19.565Z,35.80
2018-12-19T08:46:20.574Z,35.58
2018-12-19T08:48:21.643Z,41.60
2018-12-19T08:50:22.650Z,43.40
2018-12-19T08:52:23.760Z,43.20
2018-12-19T08:54:24.838Z,39.67
2018-12-19T08:56:25.896Z,43.37
2018-12-19T08:58:26.900Z,47.00
2018-12-19T09:00:27.912Z,41.80
2018-12-19T09:02:28.919Z,45.50
2018-12-19T09:04:30.007Z,45.13
2018-12-19T09:06:31.137Z,43.57
2018-12-19T09:08:32.143Z,44.83
2018-12-19T09:10:33.159Z,44.17
2018-12-19T09:12:34.311Z,49.80
2018-12-19T09:14:35.327Z,46.33
2018-12-19T09:16:36.382Z,42.13
2018-12-19T09:18:37.499Z,44.17
2018-12-19T09:20:38.507Z,44.30
2018-12-19T09:22:39.737Z,48.50
2018-12-19T09:24:41.431Z,43.77
2018-12-19T09:26:42.430Z,46.83
2018-12-19T09:28:43.447Z,43.77
2018-12-19T09:30:44.454Z,52.20
2018-12-19T09:32:45.475Z,47.80
2018-12-19T09:34:46.479Z,47.20
2018-12-19T09:36:47.488Z,42.07
2018-12-19T09:38:48.535Z,44.70
2018-12-19T09:40:49.587Z,42.57
2018-12-19T09:42:50.607Z,40.73
2018-12-19T09:44:51.615Z,43.00
2018-12-19T09:46:52.621Z,40.90
2018-12-19T09:48:53.648Z,42.07
2018-12-19T09:50:54.702Z,41.57
2018-12-19T09:52:55.650Z,40.17
2018-12-19T09:54:56.684Z,41.27
2018-12-19T09:56:57.747Z,41.00
2018-12-19T09:58:58.795Z,43.83
2018-12-19T10:00:59.807Z,39.90
2018-12-19T10:03:00.834Z,43.60
2018-12-19T10:05:01.924Z,45.77
2018-12-19T10:07:02.955Z,41.53
2018-12-19T10:09:04.300Z,38.73
2018-12-19T10:11:05.402Z,39.30
2018-12-19T10:13:06.462Z,47.80
2018-12-19T10:15:07.467Z,40.27
2018-12-19T10:17:08.488Z,39.63
2018-12-19T10:19:09.512Z,41.80
2018-12-19T10:21:10.518Z,38.93
2018-12-19T10:23:11.545Z,41.27
2018-12-19T10:25:14.031Z,43.43
2018-12-19T10:27:19.679Z,41.70
2018-12-19T10:29:20.718Z,44.37
2018-12-19T10:31:21.743Z,49.10
2018-12-19T10:33:22.802Z,45.40
2018-12-19T10:35:23.815Z,47.83
2018-12-19T10:37:24.843Z,49.87
2018-12-19T10:39:25.947Z,52.57
2018-12-19T10:41:27.161Z,49.37
2018-12-19T10:43:28.154Z,51.37
2018-12-19T10:45:29.270Z,48.13
2018-12-19T10:47:30.604Z,44.97
2018-12-19T10:49:31.771Z,43.23
2018-12-19T10:51:32.836Z,44.77
2018-12-19T10:53:33.958Z,50.07
2018-12-19T10:55:35.060Z,46.77
2018-12-19T10:57:36.086Z,48.43
2018-12-19T10:59:37.203Z,46.77
2018-12-19T11:01:38.227Z,45.37
2018-12-19T11:03:39.227Z,47.07
2018-12-19T11:05:40.251Z,40.33
2018-12-19T11:07:41.271Z,44.73
2018-12-19T11:09:42.275Z,45.17
2018-12-19T11:11:43.303Z,42.73
2018-12-19T11:13:44.341Z,44.63
2018-12-19T11:15:45.367Z,54.83
2018-12-19T11:17:46.524Z,54.70
2018-12-19T11:19:47.571Z,57.03
2018-12-19T11:21:48.578Z,55.13
2018-12-19T11:23:49.807Z,54.43
2018-12-19T11:25:50.830Z,52.43
2018-12-19T11:27:51.838Z,53.97
2018-12-19T11:29:52.859Z,51.60
2018-12-19T11:31:53.864Z,56.33
2018-12-19T11:33:54.878Z,46.63
2018-12-19T11:36:02.834Z,43.37
2018-12-19T11:38:03.863Z,45.70
2018-12-19T11:40:04.878Z,42.87
2018-12-19T11:42:06.051Z,47.23
2018-12-19T11:44:07.184Z,43.63
2018-12-19T11:46:08.170Z,44.00
2018-12-19T11:48:09.348Z,39.20
2018-12-19T11:50:10.362Z,43.57
2018-12-19T11:52:11.383Z,40.80
2018-12-19T11:54:12.462Z,41.70
2018-12-19T11:56:13.531Z,41.40
2018-12-19T11:58:14.551Z,39.17
2018-12-19T12:00:15.694Z,39.17
2018-12-19T12:02:16.751Z,42.03
2018-12-19T12:04:17.759Z,46.07
2018-12-19T12:06:18.759Z,49.57
2018-12-19T12:08:19.778Z,47.60
2018-12-19T12:10:20.683Z,49.77
2018-12-19T12:12:21.699Z,51.10
2018-12-19T12:14:22.756Z,50.77
2018-12-19T12:16:23.799Z,47.30
2018-12-19T12:18:24.832Z,52.07
2018-12-19T12:20:25.856Z,48.43
2018-12-19T12:22:26.884Z,48.83
2018-12-19T12:24:27.951Z,47.07
2018-12-19T12:26:28.962Z,41.10
2018-12-19T12:28:29.995Z,52.97
2018-12-19T12:30:31.008Z,47.30
2018-12-19T12:32:32.031Z,46.30
2018-12-19T12:34:33.063Z,47.50
2018-12-19T12:36:34.073Z,47.23
2018-12-19T12:38:35.111Z,43.80
2018-12-19T12:40:36.156Z,52.47
2018-12-19T12:42:37.410Z,68.70
2018-12-19T12:44:38.937Z,64.10
2018-12-19T12:46:39.987Z,67.13
2018-12-19T12:48:41.008Z,54.73
2018-12-19T12:50:42.055Z,58.17
2018-12-19T12:52:43.077Z,46.80
2018-12-19T12:54:44.228Z,46.30
2018-12-19T12:56:45.236Z,45.40
2018-12-19T12:58:46.250Z,44.07
2018-12-19T13:00:47.291Z,42.07
2018-12-19T13:02:48.299Z,45.50
2018-12-19T13:04:49.412Z,47.53
2018-12-19T13:06:50.451Z,46.87
2018-12-19T13:08:51.471Z,43.07
2018-12-19T13:10:52.516Z,46.80
2018-12-19T13:12:53.523Z,46.07
2018-12-19T13:14:54.571Z,46.90
2018-12-19T13:16:55.607Z,44.10
2018-12-19T13:18:56.614Z,46.67
2018-12-19T13:20:57.628Z,54.20
2018-12-19T13:22:58.658Z,45.97
2018-12-19T13:24:59.703Z,44.63
2018-12-19T13:27:00.706Z,48.07
2018-12-19T13:29:01.740Z,45.57
2018-12-19T13:31:02.864Z,41.73
2018-12-19T13:33:03.919Z,44.70
2018-12-19T13:35:04.932Z,49.30
2018-12-19T13:37:06.103Z,41.90
2018-12-19T13:39:07.111Z,43.20
2018-12-19T13:41:08.120Z,48.63
2018-12-19T13:43:09.233Z,44.93
2018-12-19T13:45:10.245Z,43.90
2018-12-19T13:47:11.255Z,49.07
2018-12-19T13:49:12.282Z,47.87
2018-12-19T13:51:13.310Z,47.03
2018-12-19T13:53:14.320Z,47.87
2018-12-19T13:55:15.355Z,50.03
2018-12-19T13:57:16.375Z,53.37
2018-12-19T13:59:17.399Z,59.17
2018-12-19T14:01:18.431Z,61.07
2018-12-19T14:03:19.445Z,70.40
2018-12-19T14:05:20.799Z,56.33
2018-12-19T14:07:21.804Z,58.60
2018-12-19T14:09:22.851Z,55.87
2018-12-19T14:11:23.883Z,57.40
2018-12-19T14:13:24.891Z,54.03
2018-12-19T14:15:25.943Z,58.70
2018-12-19T14:17:26.974Z,59.33
2018-12-19T14:19:27.978Z,58.83
2018-12-19T14:21:29.007Z,58.40
2018-12-19T14:23:30.083Z,65.67
2018-12-19T14:25:31.001Z,62.90
2018-12-19T14:27:31.931Z,67.73
2018-12-19T14:29:32.931Z,54.70
2018-12-19T14:31:33.944Z,52.60
2018-12-19T14:33:35.112Z,57.03
2018-12-19T14:35:36.174Z,51.07
2018-12-19T14:37:37.183Z,48.63
2018-12-19T14:39:38.207Z,48.00
2018-12-19T14:41:39.231Z,50.73
2018-12-19T14:43:40.359Z,50.73
2018-12-19T14:45:41.277Z,47.23
2018-12-19T14:47:42.435Z,46.83
2018-12-19T14:49:43.442Z,49.87
2018-12-19T14:51:44.466Z,50.63
2018-12-19T14:53:45.490Z,55.97
2018-12-19T14:55:46.499Z,60.53
2018-12-19T14:57:47.519Z,50.73
2018-12-19T14:59:48.531Z,51.67
2018-12-19T15:01:49.667Z,64.80
2018-12-19T15:03:50.752Z,51.70
2018-12-19T15:05:51.777Z,48.70
2018-12-19T15:07:52.790Z,54.90
2018-12-19T15:09:54.499Z,54.70
2018-12-19T15:11:55.654Z,56.53
2018-12-19T15:13:56.679Z,52.83
2018-12-19T15:16:02.416Z,49.03
2018-12-19T15:18:03.439Z,45.80
2018-12-19T15:20:04.447Z,51.67
2018-12-19T15:22:05.455Z,45.40
2018-12-19T15:24:06.481Z,47.10
2018-12-19T15:26:07.612Z,48.43
2018-12-19T15:28:08.643Z,48.67
2018-12-19T15:30:09.679Z,52.07
2018-12-19T15:32:10.687Z,47.63
2018-12-19T15:34:11.712Z,44.33
2018-12-19T15:36:13.071Z,38.90
2018-12-19T15:38:14.091Z,39.90
2018-12-19T15:40:15.099Z,38.60
2018-12-19T15:42:16.096Z,38.07
2018-12-19T15:44:17.126Z,38.03
2018-12-19T15:46:18.148Z,39.60
2018-12-19T15:48:19.270Z,36.87
2018-12-19T15:50:20.394Z,38.87
2018-12-19T15:52:21.395Z,39.33
2018-12-19T15:54:22.484Z,39.33
2018-12-19T15:56:23.494Z,39.27
2018-12-19T15:58:24.616Z,35.40
2018-12-19T16:00:25.647Z,41.73
2018-12-19T16:02:26.763Z,46.50
2018-12-19T16:04:27.836Z,45.43
2018-12-19T16:06:28.843Z,38.97
2018-12-19T16:08:29.775Z,37.47
2018-12-19T16:10:30.812Z,36.10
2018-12-19T16:12:31.826Z,36.10
2018-12-19T16:14:32.847Z,36.17
2018-12-19T16:16:33.990Z,38.17
2018-12-19T16:18:35.070Z,40.63
2018-12-19T16:20:36.075Z,38.70
2018-12-19T16:22:37.179Z,41.83
2018-12-19T16:24:38.182Z,41.47
2018-12-19T16:26:39.231Z,40.43
2018-12-19T16:28:40.250Z,40.30
2018-12-19T16:30:41.262Z,40.67
2018-12-19T16:32:42.284Z,38.07
2018-12-19T16:34:43.395Z,41.23
2018-12-19T16:36:44.403Z,42.93
2018-12-19T16:38:45.442Z,37.27
2018-12-19T16:40:46.446Z,39.03
2018-12-19T16:42:47.472Z,40.37
2018-12-19T16:44:48.583Z,36.93
2018-12-19T16:46:49.589Z,37.80
2018-12-19T16:48:50.610Z,45.53
2018-12-19T16:50:51.725Z,39.43
2018-12-19T16:52:52.740Z,36.43
2018-12-19T16:54:53.762Z,40.17
2018-12-19T16:56:54.808Z,38.80
2018-12-19T16:58:55.856Z,37.63
2018-12-19T17:00:56.891Z,43.60
2018-12-19T17:02:58.039Z,39.17
2018-12-19T17:04:59.047Z,42.20
2018-12-19T17:07:00.047Z,45.77
2018-12-19T17:09:01.052Z,40.77
2018-12-19T17:11:02.059Z,38.33
2018-12-19T17:13:03.189Z,35.97
2018-12-19T17:15:04.206Z,33.63
2018-12-19T17:17:05.210Z,38.57
2018-12-19T17:19:06.324Z,37.53
2018-12-19T17:21:07.335Z,35.13
2018-12-19T17:23:08.347Z,43.73
2018-12-19T17:25:09.364Z,39.70
2018-12-19T17:27:10.379Z,42.50
2018-12-19T17:29:11.411Z,40.30
2018-12-19T17:31:12.459Z,52.70
2018-12-19T17:33:13.511Z,82.67
2018-12-19T17:35:14.544Z,42.03
2018-12-19T17:37:15.580Z,47.27
2018-12-19T17:39:16.718Z,44.37
2018-12-19T17:41:17.756Z,41.63
2018-12-19T17:43:18.783Z,41.77
2018-12-19T17:45:19.811Z,43.30
2018-12-19T17:47:20.824Z,42.87
2018-12-19T17:49:21.915Z,39.17
2018-12-19T17:51:22.926Z,40.73
2018-12-19T17:53:23.842Z,39.10
2018-12-19T17:55:24.863Z,40.00
2018-12-19T17:57:25.875Z,42.90
2018-12-19T17:59:26.900Z,35.23
2018-12-19T18:01:27.928Z,41.40
2018-12-19T18:03:28.983Z,37.73
2018-12-19T18:05:29.995Z,37.83
2018-12-19T18:07:31.018Z,37.30
2018-12-19T18:09:32.030Z,39.53
2018-12-19T18:11:33.035Z,32.93
2018-12-19T18:13:34.155Z,39.77
2018-12-19T18:15:35.162Z,44.37
2018-12-19T18:17:36.179Z,36.53
2018-12-19T18:19:37.291Z,41.30
2018-12-19T18:21:38.318Z,37.13
2018-12-19T18:23:39.331Z,39.03
2018-12-19T18:25:40.442Z,40.90
2018-12-19T18:27:41.475Z,43.57
2018-12-19T18:29:42.490Z,39.93
2018-12-19T18:31:43.627Z,45.63
2018-12-19T18:33:44.658Z,38.97
2018-12-19T18:35:45.663Z,40.30
2018-12-19T18:37:46.666Z,38.70
2018-12-19T18:39:47.682Z,42.77
2018-12-19T18:41:48.742Z,46.47
2018-12-19T18:43:49.751Z,46.33
2018-12-19T18:45:50.764Z,44.33
2018-12-19T18:47:51.799Z,50.73
2018-12-19T18:49:52.927Z,43.33
2018-12-19T18:51:53.943Z,46.30
2018-12-19T18:53:55.011Z,45.87
2018-12-19T18:55:56.148Z,44.30
2018-12-19T18:57:57.382Z,51.47
2018-12-19T18:59:58.502Z,51.50
2018-12-19T19:01:59.511Z,48.67
2018-12-19T19:04:00.530Z,50.47
2018-12-19T19:06:01.742Z,49.63
2018-12-19T19:08:02.815Z,52.73
2018-12-19T19:10:03.815Z,45.50
2018-12-19T19:12:04.847Z,52.20
2018-12-19T19:14:05.883Z,50.00
2018-12-19T19:16:06.903Z,50.50
2018-12-19T19:18:07.915Z,41.83
2018-12-19T19:20:08.926Z,48.40
2018-12-19T19:22:10.112Z,46.60
2018-12-19T19:24:11.216Z,52.53
2018-12-19T19:26:12.223Z,44.47
2018-12-19T19:28:13.245Z,47.47
2018-12-19T19:30:14.250Z,52.70
2018-12-19T19:32:15.383Z,51.00
2018-12-19T19:34:16.402Z,50.87
2018-12-19T19:36:17.426Z,49.40
2018-12-19T19:38:18.443Z,55.33
2018-12-19T19:40:19.464Z,48.60
2018-12-19T19:42:20.505Z,47.63
2018-12-19T19:44:21.454Z,51.93
2018-12-19T19:46:22.489Z,50.30
2018-12-19T19:48:23.395Z,47.70
2018-12-19T19:50:24.471Z,49.67
2018-12-19T19:52:25.520Z,47.50
2018-12-19T19:54:26.554Z,48.57
2018-12-19T19:56:27.674Z,47.50
2018-12-19T19:58:28.686Z,46.73
2018-12-19T20:00:31.743Z,47.43
2018-12-19T20:02:32.755Z,44.67
2018-12-19T20:04:33.772Z,45.37
2018-12-19T20:06:34.811Z,45.67
2018-12-19T20:08:35.879Z,42.97
2018-12-19T20:10:36.924Z,43.80
2018-12-19T20:12:37.967Z,46.03
2018-12-19T20:14:39.010Z,42.17
2018-12-19T20:16:45.843Z,41.70
2018-12-19T20:18:47.016Z,44.20
2018-12-19T20:20:48.035Z,40.87
2018-12-19T20:22:49.047Z,40.30
2018-12-19T20:24:50.119Z,42.53
2018-12-19T20:26:51.143Z,42.03
2018-12-19T20:28:52.168Z,40.60
2018-12-19T20:30:53.190Z,41.17
2018-12-19T20:32:54.198Z,43.10
2018-12-19T20:34:55.300Z,41.13
2018-12-19T20:36:56.435Z,43.80
2018-12-19T20:38:57.448Z,44.57
2018-12-19T20:40:58.479Z,44.93
2018-12-19T20:43:06.357Z,48.70
2018-12-19T20:45:02.633Z,47.47
2018-12-19T20:47:03.663Z,59.97
2018-12-19T20:49:04.671Z,45.97
2018-12-19T20:51:05.695Z,49.13
2018-12-19T20:53:06.744Z,51.50
2018-12-19T20:55:07.848Z,49.20
2018-12-19T20:57:08.966Z,45.17
2018-12-19T20:59:10.090Z,48.67
2018-12-19T21:01:11.260Z,48.40
2018-12-19T21:03:12.373Z,43.83
2018-12-19T21:05:13.408Z,51.50
2018-12-19T21:07:14.531Z,44.93
2018-12-19T21:09:15.634Z,50.13
2018-12-19T21:11:16.982Z,52.03
2018-12-19T21:13:18.000Z,48.50
2018-12-19T21:15:19.016Z,46.80
2018-12-19T21:17:25.811Z,51.67
2018-12-19T21:19:33.987Z,45.50
2018-12-19T21:21:34.991Z,46.83
2018-12-19T21:23:36.032Z,43.40
2018-12-19T21:25:37.147Z,46.03
2018-12-19T21:27:38.175Z,47.43
2018-12-19T21:29:39.291Z,45.03
2018-12-19T21:31:40.329Z,46.83
2018-12-19T21:33:41.336Z,42.80
2018-12-19T21:35:42.344Z,40.60
2018-12-19T21:37:43.427Z,38.77
2018-12-19T21:39:44.520Z,43.50
2018-12-19T21:41:45.667Z,43.00
2018-12-19T21:43:53.456Z,39.30
2018-12-19T21:45:51.868Z,37.57
2018-12-19T21:47:52.791Z,37.20
2018-12-19T21:49:53.812Z,33.97
2018-12-19T21:51:54.852Z,44.93
2018-12-19T21:53:55.955Z,42.03
2018-12-19T21:55:57.038Z,32.67
2018-12-19T21:57:58.159Z,36.17
2018-12-19T21:59:59.282Z,43.03
2018-12-19T22:02:00.438Z,36.10
2018-12-19T22:04:01.526Z,36.73
2018-12-19T22:06:02.607Z,38.83
2018-12-19T22:08:03.958Z,36.70
2018-12-19T22:10:05.180Z,44.17
2018-12-19T22:12:06.235Z,26.75
2018-12-19T22:14:07.255Z,15.27
2018-12-19T22:16:10.518Z,12.97
2018-12-19T22:18:17.231Z,16.27
2018-12-19T22:20:18.351Z,20.30
2018-12-19T22:22:19.489Z,38.80
2018-12-19T22:24:20.530Z,32.30
2018-12-19T22:26:21.678Z,33.97
2018-12-19T22:28:22.741Z,37.03
2018-12-19T22:30:23.926Z,32.63
2018-12-19T22:32:24.974Z,30.00
2018-12-19T22:34:26.088Z,28.10
2018-12-19T22:36:27.112Z,29.80
2018-12-19T22:38:28.305Z,30.53
2018-12-19T22:40:29.395Z,31.00
2018-12-19T22:42:30.590Z,37.87
2018-12-19T22:44:31.754Z,36.53
2018-12-19T22:46:32.868Z,34.17
2018-12-19T22:48:34.150Z,37.13
2018-12-19T22:50:35.306Z,34.33
2018-12-19T22:52:36.340Z,41.17
2018-12-19T22:54:37.542Z,36.20
2018-12-19T22:56:38.618Z,36.50
2018-12-19T22:58:39.680Z,35.03
2018-12-19T23:00:46.527Z,31.23
2018-12-19T23:02:53.556Z,34.63
2018-12-19T23:04:54.587Z,42.20
2018-12-19T23:06:55.930Z,39.67
2018-12-19T23:08:57.079Z,43.53
2018-12-19T23:10:58.177Z,44.17
2018-12-19T23:12:59.291Z,39.60
2018-12-19T23:15:00.294Z,40.47
2018-12-19T23:17:05.889Z,42.43
2018-12-19T23:19:07.154Z,35.37
2018-12-19T23:21:08.317Z,41.53
2018-12-19T23:23:09.504Z,36.93
2018-12-19T23:25:10.596Z,37.43
2018-12-19T23:27:11.597Z,35.13
2018-12-19T23:29:12.626Z,35.57
2018-12-19T23:31:13.668Z,41.63
2018-12-19T23:33:14.762Z,38.17
2018-12-19T23:35:16.117Z,36.20
2018-12-19T23:37:17.283Z,35.50
2018-12-19T23:39:18.394Z,35.33
2018-12-19T23:41:19.423Z,36.70
2018-12-19T23:43:20.326Z,36.87
2018-12-19T23:45:21.336Z,38.80
2018-12-19T23:47:22.370Z,38.53
2018-12-19T23:49:23.379Z,35.20
2018-12-19T23:51:24.459Z,34.80
2018-12-19T23:53:25.613Z,32.83
2018-12-19T23:55:26.749Z,37.17
2018-12-19T23:57:27.812Z,37.97
2018-12-19T23:59:28.919Z,33.17
